Kirkwood, Missouri
Current Conditions -  °F | °C
As of 2:51 PM on Saturday 25 Oct 2014 (Local Time) from KSTL Reporting Station
Scattered Clouds Scattered Clouds  
Wind Chill: 81°   Ceiling: Unl
Heat Index: 81°   Visibility: 10mi
Dew Point: 58°   Wind: 8mph
Humidity: 45%   Direction: 270°W
Pressure: 30.02"   Gusts: NA
Location:  38.58°N, 90.41°W
Report Text: KSTL 251951Z 27007KT 10SM SCT250 27/14 A3002 RMK AO2 SLP156 T02720144
Loading
Personal Weather Stations






























Interactive Weather Map
Tropical Storm Tracking
New forecast layout! Learn more

10-Day Weather Forecast

Advertisements
Track Severe Weather on mobile